Time;durP1;ratioP1;P1;durP2;ratioP2;P2;SDS_P1;SDS_P2;PMS_P1;PMS_P2;Temp;Humidity;BMP_temperature;BMP_pressure;BME280_temperature;BME280_humidity;BME280_pressure;Samples;Min_cycle;Max_cycle;Signal;HPM_P1;HPM_P2
2023/05/23 00:00:14;;;;;;;9.38;6.10;;;23.20;64.50;;;;;;4979463;28;20030;-65
2023/05/23 00:02:40;;;;;;;7.75;5.90;;;23.20;64.40;;;;;;4983029;28;20046;-62
2023/05/23 00:05:06;;;;;;;9.00;5.28;;;23.20;64.50;;;;;;4984835;28;20505;-64
2023/05/23 00:07:32;;;;;;;7.43;5.82;;;23.20;65.10;;;;;;4984039;28;20042;-65
2023/05/23 00:09:57;;;;;;;9.38;5.90;;;23.20;64.50;;;;;;4980288;28;20483;-65
2023/05/23 00:12:23;;;;;;;9.30;6.85;;;23.20;64.50;;;;;;4982174;28;20220;-65
2023/05/23 00:14:49;;;;;;;9.63;6.47;;;23.20;64.60;;;;;;4979908;28;20343;-65
2023/05/23 00:17:16;;;;;;;8.43;5.45;;;23.20;64.50;;;;;;4977682;28;20147;-65
2023/05/23 00:19:44;;;;;;;7.40;5.47;;;23.20;64.40;;;;;;4981684;28;20042;-65
2023/05/23 00:22:11;;;;;;;7.32;5.35;;;23.20;64.50;;;;;;4977053;28;20030;-65
2023/05/23 00:24:36;;;;;;;10.25;5.80;;;23.20;64.50;;;;;;4982879;28;20374;-65
2023/05/23 00:27:02;;;;;;;9.57;5.70;;;23.20;64.40;;;;;;4984102;28;20152;-63
2023/05/23 00:29:27;;;;;;;8.57;5.35;;;23.20;64.50;;;;;;4983682;28;20045;-64
2023/05/23 00:31:53;;;;;;;6.32;4.80;;;23.20;64.50;;;;;;4984066;28;20034;-64
2023/05/23 00:34:18;;;;;;;7.00;5.28;;;23.20;64.40;;;;;;4984109;28;20037;-65
2023/05/23 00:36:46;;;;;;;6.93;4.80;;;23.20;64.50;;;;;;4982816;28;20033;-65
2023/05/23 00:39:17;;;;;;;7.82;4.72;;;23.20;64.50;;;;;;4982645;28;20421;-65
2023/05/23 00:41:47;;;;;;;7.18;5.57;;;23.20;64.40;;;;;;4980257;28;20040;-64
2023/05/23 00:44:13;;;;;;;6.47;5.10;;;23.20;64.50;;;;;;4978272;28;20038;-65
2023/05/23 00:46:39;;;;;;;6.93;5.18;;;23.20;64.40;;;;;;4981073;28;20030;-65
2023/05/23 00:49:05;;;;;;;12.02;5.47;;;23.20;64.40;;;;;;4978785;28;20064;-64
2023/05/23 00:51:31;;;;;;;6.30;4.90;;;23.20;64.50;;;;;;4981187;28;20125;-65
2023/05/23 00:53:59;;;;;;;5.90;5.00;;;23.20;64.40;;;;;;4984627;28;20420;-64
2023/05/23 00:56:25;;;;;;;6.70;4.88;;;23.20;64.40;;;;;;4981486;28;20031;-65
2023/05/23 00:58:51;;;;;;;5.55;4.72;;;23.20;64.40;;;;;;4983906;28;20026;-65
2023/05/23 01:01:17;;;;;;;6.05;4.47;;;23.20;64.40;;;;;;4983902;28;20665;-63
2023/05/23 01:03:44;;;;;;;6.55;4.80;;;23.20;64.40;;;;;;4984261;28;20041;-64
2023/05/23 01:06:10;;;;;;;11.15;5.75;;;23.20;64.50;;;;;;4985080;28;20544;-64
2023/05/23 01:08:35;;;;;;;7.07;4.78;;;23.20;64.50;;;;;;4981585;28;20398;-65
2023/05/23 01:11:08;;;;;;;6.88;5.07;;;23.20;64.40;;;;;;4979693;28;20038;-65
2023/05/23 01:13:41;;;;;;;8.82;5.00;;;23.20;64.40;;;;;;4976831;28;20039;-65
2023/05/23 01:16:15;;;;;;;9.07;4.65;;;23.20;64.40;;;;;;4977188;28;20035;-65
2023/05/23 01:18:56;;;;;;;5.13;4.57;;;23.20;64.50;;;;;;4977102;28;20042;-66
2023/05/23 01:21:24;;;;;;;6.55;4.65;;;23.20;64.50;;;;;;4983590;28;20037;-65
2023/05/23 01:24:07;;;;;;;6.57;4.93;;;23.10;64.30;;;;;;4982257;28;20038;-64
2023/05/23 01:26:54;;;;;;;5.72;4.38;;;23.20;64.40;;;;;;4979792;28;20517;-66
2023/05/23 01:29:25;;;;;;;6.57;4.90;;;23.20;64.40;;;;;;4981862;28;20576;-65
2023/05/23 01:31:53;;;;;;;6.82;4.55;;;23.20;64.30;;;;;;4983436;28;20038;-65
2023/05/23 01:34:20;;;;;;;5.70;5.10;;;23.20;64.40;;;;;;4983694;28;20149;-65
2023/05/23 01:36:49;;;;;;;6.35;4.45;;;23.10;64.40;;;;;;4983017;28;20034;-65
2023/05/23 01:39:14;;;;;;;5.03;3.90;;;23.20;64.40;;;;;;4981193;28;20035;-65
2023/05/23 01:41:40;;;;;;;4.80;4.18;;;23.20;64.40;;;;;;4982551;28;20232;-66
2023/05/23 01:44:06;;;;;;;6.72;4.68;;;23.10;64.30;;;;;;4981727;28;20034;-66
2023/05/23 01:46:34;;;;;;;5.32;3.90;;;23.10;64.30;;;;;;4980440;28;20038;-64
2023/05/23 01:49:02;;;;;;;5.00;4.20;;;23.10;64.40;;;;;;4977628;28;20039;-66
2023/05/23 01:51:29;;;;;;;5.47;4.45;;;23.10;64.40;;;;;;4985817;28;20513;-64
2023/05/23 01:53:55;;;;;;;4.28;3.88;;;23.10;64.30;;;;;;4986687;28;20026;-65
2023/05/23 01:56:21;;;;;;;4.55;4.03;;;23.20;64.40;;;;;;4987050;28;20043;-66
2023/05/23 01:58:47;;;;;;;4.53;3.80;;;23.10;64.40;;;;;;4987286;28;20446;-66
2023/05/23 02:01:13;;;;;;;4.80;4.30;;;23.10;64.30;;;;;;4986450;28;20038;-65
2023/05/23 02:03:38;;;;;;;5.68;4.03;;;23.10;64.40;;;;;;4986226;28;20061;-65
2023/05/23 02:06:04;;;;;;;5.47;4.00;;;23.10;64.40;;;;;;4986623;28;20350;-66
2023/05/23 02:08:29;;;;;;;4.82;4.22;;;23.10;64.50;;;;;;4986422;28;20053;-65
2023/05/23 02:10:55;;;;;;;5.75;3.60;;;23.10;64.60;;;;;;4981489;28;20030;-66
2023/05/23 02:13:20;;;;;;;6.25;4.35;;;23.10;64.50;;;;;;4978599;28;20085;-66
2023/05/23 02:15:46;;;;;;;4.72;4.32;;;23.10;64.50;;;;;;4982766;28;20041;-65
2023/05/23 02:18:12;;;;;;;5.32;4.20;;;23.10;64.50;;;;;;4983233;28;20023;-64
2023/05/23 02:20:37;;;;;;;5.07;3.90;;;23.10;64.50;;;;;;4986307;28;20029;-65
2023/05/23 02:23:03;;;;;;;4.75;3.92;;;23.10;64.60;;;;;;4985294;28;20038;-65
2023/05/23 02:25:28;;;;;;;4.78;3.88;;;23.10;64.60;;;;;;4985549;28;20401;-65
2023/05/23 02:27:54;;;;;;;4.88;4.22;;;23.10;64.60;;;;;;4985189;28;20100;-65
2023/05/23 02:30:19;;;;;;;4.53;3.75;;;23.10;64.60;;;;;;4986713;28;20045;-65
2023/05/23 02:32:45;;;;;;;3.90;3.50;;;23.10;64.70;;;;;;4986076;28;20038;-65
2023/05/23 02:35:11;;;;;;;6.22;4.00;;;23.10;64.50;;;;;;4986461;28;20031;-65
2023/05/23 02:37:36;;;;;;;5.93;4.30;;;23.10;64.50;;;;;;4983864;28;20046;-66
2023/05/23 02:40:03;;;;;;;5.40;4.30;;;23.10;64.60;;;;;;4978975;28;20421;-64
2023/05/23 02:42:28;;;;;;;4.38;3.50;;;23.10;64.70;;;;;;4982210;28;20049;-64
2023/05/23 02:44:54;;;;;;;6.28;4.10;;;23.10;64.60;;;;;;4982427;28;20394;-65
2023/05/23 02:47:19;;;;;;;4.60;3.78;;;23.10;64.60;;;;;;4984973;28;20038;-65
2023/05/23 02:49:45;;;;;;;4.43;3.55;;;23.10;64.60;;;;;;4985742;28;20023;-65
2023/05/23 02:52:10;;;;;;;4.40;3.95;;;23.10;64.60;;;;;;4985744;28;20030;-66
2023/05/23 02:54:35;;;;;;;4.85;3.58;;;23.10;64.70;;;;;;4977248;28;20511;-65
2023/05/23 02:57:01;;;;;;;4.13;3.72;;;23.10;64.70;;;;;;4986829;28;20029;-66
2023/05/23 02:59:26;;;;;;;4.18;3.78;;;23.10;64.60;;;;;;4986042;28;20116;-66
2023/05/23 03:01:52;;;;;;;5.47;4.22;;;23.10;64.70;;;;;;4984933;28;20506;-65
2023/05/23 03:04:17;;;;;;;4.00;3.38;;;23.10;64.70;;;;;;4984012;28;20430;-65
2023/05/23 03:06:43;;;;;;;3.88;3.50;;;23.10;64.70;;;;;;4981254;28;20038;-65
2023/05/23 03:09:09;;;;;;;3.55;3.25;;;23.10;64.60;;;;;;4983010;28;20520;-65
2023/05/23 03:11:34;;;;;;;4.65;3.10;;;23.10;64.60;;;;;;4980199;28;20038;-65
2023/05/23 03:14:00;;;;;;;4.50;3.60;;;23.10;64.60;;;;;;4986065;28;20034;-65
2023/05/23 03:16:25;;;;;;;5.72;4.30;;;23.10;64.60;;;;;;4978713;28;20026;-65
2023/05/23 03:18:51;;;;;;;4.18;3.67;;;23.10;64.60;;;;;;4981405;28;20030;-65
2023/05/23 03:21:16;;;;;;;3.97;3.30;;;23.10;64.50;;;;;;4981327;28;20053;-67
2023/05/23 03:23:42;;;;;;;4.13;3.72;;;23.10;64.50;;;;;;4985131;28;20118;-66
2023/05/23 03:26:07;;;;;;;3.78;3.40;;;23.10;64.60;;;;;;4986360;28;20031;-66
2023/05/23 03:28:33;;;;;;;3.55;3.20;;;23.10;64.50;;;;;;4985091;28;21978;-66
2023/05/23 03:30:58;;;;;;;4.45;4.05;;;23.10;64.50;;;;;;4985064;28;20030;-65
2023/05/23 03:33:24;;;;;;;3.80;3.33;;;23.10;64.50;;;;;;4985014;28;20042;-65
2023/05/23 03:35:50;;;;;;;3.40;3.10;;;23.10;64.50;;;;;;4985377;28;20042;-66
2023/05/23 03:38:15;;;;;;;5.05;4.15;;;23.10;64.50;;;;;;4982726;28;20038;-64
2023/05/23 03:40:41;;;;;;;4.88;3.28;;;23.10;64.50;;;;;;4984389;28;20409;-65
2023/05/23 03:43:07;;;;;;;4.15;3.55;;;23.10;64.50;;;;;;4984269;28;20038;-66
2023/05/23 03:45:33;;;;;;;3.95;3.60;;;23.10;64.50;;;;;;4980003;28;20343;-65
2023/05/23 03:47:59;;;;;;;3.78;3.45;;;23.10;64.50;;;;;;4981841;28;20038;-65
2023/05/23 03:50:25;;;;;;;4.05;3.47;;;23.00;64.50;;;;;;4984640;28;20035;-65
2023/05/23 03:52:51;;;;;;;5.82;3.42;;;23.00;64.50;;;;;;4984820;28;20027;-65
2023/05/23 03:55:21;;;;;;;3.90;3.30;;;23.10;64.50;;;;;;4984806;28;20034;-65
2023/05/23 03:57:50;;;;;;;3.60;3.30;;;23.00;64.40;;;;;;4985043;28;20030;-66
2023/05/23 04:00:17;;;;;;;3.75;3.20;;;23.00;64.40;;;;;;4983580;28;20444;-65
2023/05/23 04:02:46;;;;;;;4.38;3.35;;;23.00;64.40;;;;;;4981144;28;20066;-66
2023/05/23 04:05:12;;;;;;;3.85;2.92;;;23.00;64.40;;;;;;4982828;28;20040;-65
2023/05/23 04:07:37;;;;;;;3.80;2.97;;;23.00;64.40;;;;;;4982119;28;20026;-67
2023/05/23 04:10:04;;;;;;;4.47;3.25;;;23.10;64.40;;;;;;4979862;28;20018;-66
2023/05/23 04:12:30;;;;;;;4.15;3.30;;;23.00;64.40;;;;;;4980417;28;20057;-64
2023/05/23 04:14:56;;;;;;;3.42;3.13;;;23.10;64.40;;;;;;4982216;28;20027;-65
2023/05/23 04:17:22;;;;;;;3.90;3.53;;;23.00;64.40;;;;;;4984687;28;20038;-66
2023/05/23 04:19:48;;;;;;;3.85;2.97;;;23.00;64.40;;;;;;4983178;28;20034;-67
2023/05/23 04:22:14;;;;;;;3.65;3.35;;;23.00;64.40;;;;;;4984672;28;20117;-64
2023/05/23 04:24:39;;;;;;;3.38;3.08;;;23.00;64.40;;;;;;4984510;28;20605;-66
2023/05/23 04:27:06;;;;;;;3.50;3.20;;;23.10;64.40;;;;;;4985157;28;20513;-66
2023/05/23 04:29:33;;;;;;;4.13;3.20;;;23.00;64.40;;;;;;4983658;28;20339;-66
2023/05/23 04:31:59;;;;;;;4.07;3.10;;;23.00;64.30;;;;;;4983171;28;20089;-66
2023/05/23 04:34:25;;;;;;;3.58;3.28;;;23.10;64.40;;;;;;4982643;28;20572;-66
2023/05/23 04:36:52;;;;;;;3.75;3.15;;;23.00;64.30;;;;;;4979061;28;20031;-65
2023/05/23 04:39:18;;;;;;;4.20;3.42;;;23.10;64.40;;;;;;4983624;28;20489;-66
2023/05/23 04:41:44;;;;;;;3.50;3.20;;;23.00;64.30;;;;;;4977130;28;20323;-66
2023/05/23 04:44:10;;;;;;;4.10;3.70;;;23.00;64.30;;;;;;4979254;28;20081;-66
2023/05/23 04:46:36;;;;;;;3.83;2.97;;;23.00;64.30;;;;;;4980553;28;20042;-66
2023/05/23 04:49:02;;;;;;;3.55;3.25;;;23.10;64.30;;;;;;4977973;28;20615;-65
2023/05/23 04:51:28;;;;;;;4.65;3.97;;;23.10;64.30;;;;;;4986422;28;20043;-65
2023/05/23 04:53:54;;;;;;;3.70;3.40;;;23.10;64.30;;;;;;4983883;28;20401;-66
2023/05/23 04:56:19;;;;;;;3.17;2.80;;;23.10;64.20;;;;;;4982457;28;20054;-66
2023/05/23 04:58:45;;;;;;;4.47;3.33;;;23.10;64.20;;;;;;4983482;28;20038;-65
2023/05/23 05:01:12;;;;;;;3.60;3.30;;;23.10;64.20;;;;;;4982367;28;20118;-65
2023/05/23 05:03:38;;;;;;;3.67;3.35;;;23.10;64.20;;;;;;4980380;28;20577;-65
2023/05/23 05:06:04;;;;;;;3.30;3.00;;;23.10;64.20;;;;;;4981548;28;20153;-65
2023/05/23 05:08:30;;;;;;;3.15;2.85;;;23.10;64.20;;;;;;4975501;28;20038;-66
2023/05/23 05:10:55;;;;;;;3.85;3.28;;;23.10;64.20;;;;;;4978380;28;20727;-65
2023/05/23 05:13:21;;;;;;;4.85;3.15;;;23.10;64.30;;;;;;4982232;28;20451;-66
2023/05/23 05:15:46;;;;;;;3.80;3.40;;;23.10;64.30;;;;;;4980613;28;20038;-65
2023/05/23 05:18:12;;;;;;;3.55;3.20;;;23.10;64.30;;;;;;4983118;28;20031;-68
2023/05/23 05:20:38;;;;;;;2.92;2.63;;;23.10;65.10;;;;;;4983899;28;20344;-68
2023/05/23 05:23:03;;;;;;;4.13;3.17;;;23.00;64.40;;;;;;4994364;28;20034;-67
2023/05/23 05:25:31;;;;;;;3.53;3.17;;;23.10;64.50;;;;;;4983168;28;20026;-69
2023/05/23 05:28:05;;;;;;;3.42;2.95;;;23.10;64.40;;;;;;4984522;28;20018;-66
2023/05/23 05:30:33;;;;;;;6.70;3.45;;;23.10;64.40;;;;;;4974718;28;20055;-66
2023/05/23 05:33:00;;;;;;;6.90;3.40;;;23.00;64.40;;;;;;4982131;28;20026;-64
2023/05/23 05:35:26;;;;;;;7.78;3.55;;;23.10;64.30;;;;;;4980344;28;20091;-66
2023/05/23 05:37:51;;;;;;;4.18;3.10;;;23.00;64.30;;;;;;4982109;28;20034;-67
2023/05/23 05:40:17;;;;;;;3.90;3.28;;;23.00;64.30;;;;;;4982689;28;20041;-67
2023/05/23 05:42:42;;;;;;;3.55;3.03;;;23.10;64.40;;;;;;4980536;28;20026;-68
2023/05/23 05:45:10;;;;;;;6.18;3.22;;;23.00;64.30;;;;;;4982123;28;20034;-67
2023/05/23 05:47:37;;;;;;;3.85;3.03;;;23.10;64.30;;;;;;4981589;28;20038;-67
2023/05/23 05:50:08;;;;;;;6.97;3.28;;;23.00;64.30;;;;;;4983177;28;20037;-68
2023/05/23 05:52:37;;;;;;;5.32;3.78;;;23.00;64.30;;;;;;4981864;28;20026;-67
2023/05/23 05:55:06;;;;;;;5.45;3.65;;;23.00;64.30;;;;;;4984196;28;20030;-69
2023/05/23 05:57:32;;;;;;;5.70;4.13;;;23.00;64.30;;;;;;4981991;28;20520;-65
2023/05/23 05:59:57;;;;;;;6.40;4.18;;;23.10;64.30;;;;;;4982317;28;20034;-66
2023/05/23 06:02:23;;;;;;;6.22;3.83;;;23.00;64.30;;;;;;4979397;28;20425;-68
2023/05/23 06:04:49;;;;;;;4.43;3.47;;;23.00;64.30;;;;;;4978763;28;20035;-66
2023/05/23 06:07:14;;;;;;;4.10;3.47;;;23.00;64.30;;;;;;4979583;28;20042;-65
2023/05/23 06:09:40;;;;;;;6.22;4.18;;;23.00;64.30;;;;;;4978182;28;20501;-67
2023/05/23 06:12:05;;;;;;;6.28;4.43;;;23.00;64.30;;;;;;4979968;28;20214;-67
2023/05/23 06:14:31;;;;;;;5.05;3.47;;;23.10;64.80;;;;;;4986764;28;20035;-66
2023/05/23 06:16:56;;;;;;;5.70;3.90;;;23.10;64.50;;;;;;4983489;28;20169;-65
2023/05/23 06:19:22;;;;;;;6.43;3.97;;;23.10;64.80;;;;;;4982579;28;20027;-67
2023/05/23 06:21:47;;;;;;;5.45;3.28;;;23.00;65.20;;;;;;4983307;28;20034;-70
2023/05/23 06:24:13;;;;;;;5.13;3.10;;;23.10;65.90;;;;;;4984128;28;20030;-65
2023/05/23 06:26:38;;;;;;;7.57;4.00;;;23.10;65.30;;;;;;4986618;28;20125;-66
2023/05/23 06:29:04;;;;;;;10.43;3.75;;;23.10;66.30;;;;;;4980851;28;20034;-65
2023/05/23 06:31:29;;;;;;;6.65;3.85;;;23.10;65.50;;;;;;4985760;28;20031;-65
2023/05/23 06:33:54;;;;;;;5.80;3.90;;;23.10;65.50;;;;;;4982861;28;20034;-64
2023/05/23 06:36:20;;;;;;;5.05;3.72;;;23.10;65.30;;;;;;4978912;28;20049;-65
2023/05/23 06:38:46;;;;;;;5.68;4.25;;;23.10;65.40;;;;;;4977540;28;20046;-65
2023/05/23 06:41:12;;;;;;;8.40;5.80;;;23.10;65.40;;;;;;4983390;28;20027;-66
2023/05/23 06:43:37;;;;;;;9.68;7.88;;;23.10;65.30;;;;;;4983244;28;20033;-65
2023/05/23 06:46:03;;;;;;;11.82;8.38;;;23.10;65.60;;;;;;4984731;28;20515;-66
2023/05/23 06:48:29;;;;;;;15.48;10.07;;;23.10;65.60;;;;;;4985448;28;20053;-65
2023/05/23 06:50:54;;;;;;;22.10;12.63;;;23.10;65.60;;;;;;4988980;28;20053;-65
2023/05/23 06:53:20;;;;;;;16.90;11.30;;;23.10;65.60;;;;;;4987272;28;20133;-65
2023/05/23 06:55:45;;;;;;;18.77;10.45;;;23.10;65.80;;;;;;4987521;28;20118;-66
2023/05/23 06:58:11;;;;;;;18.90;11.10;;;23.10;65.80;;;;;;4984558;28;20057;-66
2023/05/23 07:00:37;;;;;;;19.95;11.43;;;23.10;65.70;;;;;;4985213;28;20068;-66
2023/05/23 07:03:03;;;;;;;19.08;11.73;;;23.10;65.80;;;;;;4981005;28;20049;-63
2023/05/23 07:05:28;;;;;;;18.08;10.63;;;23.10;65.80;;;;;;4980462;28;20093;-64
2023/05/23 07:07:54;;;;;;;21.27;10.60;;;23.10;65.80;;;;;;4975511;28;20030;-64
2023/05/23 07:10:20;;;;;;;15.05;9.95;;;23.10;65.70;;;;;;4982529;28;20066;-65
2023/05/23 07:12:46;;;;;;;15.73;10.10;;;23.00;65.80;;;;;;4980116;28;20038;-64
2023/05/23 07:15:13;;;;;;;16.83;10.77;;;23.10;65.90;;;;;;4986347;28;20101;-64
2023/05/23 07:17:39;;;;;;;15.82;10.25;;;23.10;65.90;;;;;;4984980;28;20449;-65
2023/05/23 07:20:05;;;;;;;15.30;9.57;;;23.10;66.20;;;;;;4986221;28;20054;-65
2023/05/23 07:22:31;;;;;;;15.00;9.90;;;23.10;66.00;;;;;;4985330;28;20105;-65
2023/05/23 07:24:56;;;;;;;11.48;8.55;;;23.10;66.10;;;;;;4985890;28;20454;-65
2023/05/23 07:27:22;;;;;;;13.23;9.07;;;23.10;66.00;;;;;;4984967;28;20027;-68
2023/05/23 07:29:47;;;;;;;12.38;9.05;;;23.10;66.00;;;;;;4984688;28;20034;-65
2023/05/23 07:32:13;;;;;;;14.32;9.55;;;23.10;66.30;;;;;;4982858;28;20038;-66
2023/05/23 07:34:38;;;;;;;14.13;9.75;;;23.10;66.00;;;;;;4981432;28;20487;-66
2023/05/23 07:37:04;;;;;;;14.93;9.15;;;23.10;66.20;;;;;;4979644;28;20037;-66
2023/05/23 07:39:29;;;;;;;10.75;9.05;;;23.10;66.20;;;;;;4979613;28;20034;-65
2023/05/23 07:41:54;;;;;;;14.70;9.43;;;23.10;66.00;;;;;;4980279;28;20069;-65
2023/05/23 07:44:20;;;;;;;11.63;8.88;;;23.10;66.10;;;;;;4984273;28;20122;-65
2023/05/23 07:46:46;;;;;;;11.27;8.70;;;23.10;66.00;;;;;;4984056;28;20030;-65
2023/05/23 07:49:11;;;;;;;13.63;8.32;;;23.10;66.00;;;;;;4980466;28;20521;-67
2023/05/23 07:51:37;;;;;;;12.02;7.95;;;23.10;65.80;;;;;;4984439;28;20038;-66
2023/05/23 07:54:02;;;;;;;12.35;9.15;;;23.10;65.70;;;;;;4985103;28;20089;-66
2023/05/23 07:56:28;;;;;;;10.00;8.75;;;23.10;65.70;;;;;;4985173;28;20061;-66
2023/05/23 07:58:54;;;;;;;12.02;8.48;;;23.10;65.50;;;;;;4984779;28;20054;-66
2023/05/23 08:01:20;;;;;;;10.13;8.48;;;23.10;65.60;;;;;;4984342;28;20498;-66
2023/05/23 08:03:46;;;;;;;14.55;8.90;;;23.10;65.40;;;;;;4980964;28;20030;-66
2023/05/23 08:06:11;;;;;;;10.63;8.07;;;23.10;65.40;;;;;;4979708;28;20030;-65
2023/05/23 08:08:37;;;;;;;9.95;8.15;;;23.10;65.40;;;;;;4978989;28;20394;-65
2023/05/23 08:11:03;;;;;;;10.52;7.90;;;23.10;65.50;;;;;;4983878;28;20040;-64
2023/05/23 08:13:29;;;;;;;9.82;8.70;;;23.10;65.50;;;;;;4984271;28;20034;-66
2023/05/23 08:15:55;;;;;;;8.90;7.65;;;23.10;65.30;;;;;;4983108;28;20030;-64
2023/05/23 08:18:20;;;;;;;11.63;8.73;;;23.00;65.30;;;;;;4984136;28;20054;-65
2023/05/23 08:20:46;;;;;;;8.55;7.75;;;23.10;65.50;;;;;;4983427;28;20054;-65
2023/05/23 08:23:11;;;;;;;11.02;8.07;;;23.00;65.30;;;;;;4984668;28;20044;-66
2023/05/23 08:25:37;;;;;;;12.90;8.55;;;23.00;65.40;;;;;;4983096;28;20413;-66
2023/05/23 08:28:03;;;;;;;10.18;8.80;;;23.00;65.40;;;;;;4984267;28;20497;-66
2023/05/23 08:30:29;;;;;;;8.80;7.38;;;23.00;65.40;;;;;;4977720;28;20114;-65
2023/05/23 08:32:55;;;;;;;9.73;7.15;;;23.00;65.40;;;;;;4979512;28;20030;-66
2023/05/23 08:35:21;;;;;;;7.25;6.55;;;23.00;65.50;;;;;;4976573;28;20512;-67
2023/05/23 08:37:48;;;;;;;9.43;7.63;;;23.00;65.40;;;;;;4977557;28;20046;-67
2023/05/23 08:40:19;;;;;;;8.15;6.90;;;23.00;65.40;;;;;;4974757;28;20046;-65
2023/05/23 08:42:49;;;;;;;9.57;7.20;;;23.00;65.50;;;;;;4982776;28;20445;-65
2023/05/23 08:45:15;;;;;;;10.57;6.85;;;23.00;65.40;;;;;;4991738;28;20027;-66
2023/05/23 08:47:43;;;;;;;7.90;7.10;;;23.00;65.40;;;;;;4982794;28;20057;-65
2023/05/23 08:50:14;;;;;;;7.90;7.10;;;23.00;65.30;;;;;;4982616;28;20035;-66
2023/05/23 08:52:46;;;;;;;12.05;7.07;;;23.00;65.30;;;;;;4982984;28;20033;-68
2023/05/23 08:55:12;;;;;;;7.60;6.70;;;23.00;65.20;;;;;;4981310;28;20022;-65
2023/05/23 08:57:42;;;;;;;9.85;6.80;;;23.00;65.30;;;;;;4983090;28;20038;-67
2023/05/23 09:00:13;;;;;;;8.07;6.72;;;23.00;65.40;;;;;;4979323;28;20054;-65
2023/05/23 09:02:39;;;;;;;7.57;6.35;;;23.00;65.20;;;;;;4980251;28;20029;-67
2023/05/23 09:05:05;;;;;;;7.35;6.57;;;23.00;65.30;;;;;;4973048;28;20027;-66
2023/05/23 09:07:30;;;;;;;9.70;7.47;;;23.00;65.30;;;;;;4975645;28;20113;-66
2023/05/23 09:09:56;;;;;;;7.05;6.35;;;23.00;65.90;;;;;;4976405;28;20117;-66
2023/05/23 09:12:22;;;;;;;7.70;6.57;;;23.00;65.20;;;;;;4981867;28;20026;-66
2023/05/23 09:14:47;;;;;;;7.72;7.07;;;23.00;65.20;;;;;;4983143;28;20109;-66
2023/05/23 09:17:18;;;;;;;7.25;6.55;;;23.00;65.20;;;;;;4983813;28;20573;-66
2023/05/23 09:19:45;;;;;;;8.52;6.72;;;23.00;65.20;;;;;;4983210;28;20592;-66
2023/05/23 09:22:11;;;;;;;9.68;7.10;;;23.00;65.30;;;;;;4983743;28;20494;-67
2023/05/23 09:24:37;;;;;;;7.70;6.90;;;23.00;65.20;;;;;;4982962;28;20120;-66
2023/05/23 09:27:06;;;;;;;7.25;6.50;;;23.00;65.30;;;;;;4983338;28;20034;-67
2023/05/23 09:29:35;;;;;;;6.63;5.88;;;23.00;65.20;;;;;;4981025;28;20505;-66
2023/05/23 09:32:10;;;;;;;8.02;7.22;;;23.00;65.20;;;;;;4982260;28;20086;-65
2023/05/23 09:34:39;;;;;;;7.88;6.80;;;23.00;65.20;;;;;;4980005;28;20038;-66
2023/05/23 09:37:05;;;;;;;7.80;6.60;;;22.90;65.10;;;;;;4973686;28;20085;-66
2023/05/23 09:39:35;;;;;;;7.15;6.50;;;23.00;65.20;;;;;;4978257;28;20046;-65
2023/05/23 09:42:01;;;;;;;7.07;6.30;;;23.00;65.20;;;;;;4982816;28;20583;-66
2023/05/23 09:44:26;;;;;;;9.00;6.72;;;23.00;65.20;;;;;;4983853;28;20066;-65
2023/05/23 09:46:52;;;;;;;7.00;6.22;;;23.00;65.10;;;;;;4982608;28;20035;-66
2023/05/23 09:49:18;;;;;;;7.10;6.35;;;23.00;65.10;;;;;;4982591;28;20560;-65
2023/05/23 09:52:00;;;;;;;7.70;6.57;;;23.00;65.10;;;;;;4982332;28;20066;-65
2023/05/23 09:54:25;;;;;;;6.25;5.65;;;23.00;65.10;;;;;;4979169;28;20142;-65
2023/05/23 09:56:52;;;;;;;6.97;6.28;;;23.00;65.00;;;;;;4977248;28;20117;-65
2023/05/23 09:59:23;;;;;;;6.32;5.78;;;23.00;65.00;;;;;;4977364;28;20042;-67
2023/05/23 10:01:51;;;;;;;7.38;6.20;;;23.00;65.00;;;;;;4982213;28;20125;-69
2023/05/23 10:04:23;;;;;;;7.05;6.28;;;22.90;65.00;;;;;;4981755;28;20039;-66
2023/05/23 10:06:53;;;;;;;6.28;5.68;;;22.90;64.90;;;;;;4980929;28;20392;-66
2023/05/23 10:09:22;;;;;;;6.93;5.90;;;22.90;65.00;;;;;;4982904;28;20239;-67
2023/05/23 10:12:09;;;;;;;6.70;6.10;;;22.90;65.00;;;;;;4985890;28;20043;-65
2023/05/23 10:14:39;;;;;;;6.60;6.00;;;22.90;65.00;;;;;;4985653;28;20042;-67
2023/05/23 10:17:34;;;;;;;6.78;6.07;;;22.90;65.00;;;;;;4987880;28;20559;-66
2023/05/23 10:20:11;;;;;;;6.13;5.63;;;22.90;65.00;;;;;;4986814;28;20045;-66
2023/05/23 10:22:37;;;;;;;7.82;6.70;;;22.90;65.00;;;;;;4986248;28;20038;-66
2023/05/23 10:25:09;;;;;;;9.57;5.53;;;23.00;65.60;;;;;;4985627;28;20117;-67
2023/05/23 10:27:36;;;;;;;7.90;5.95;;;23.00;64.90;;;;;;4982042;28;20031;-67
2023/05/23 10:30:02;;;;;;;6.38;5.68;;;23.00;65.00;;;;;;4982254;28;20450;-65
2023/05/23 10:32:28;;;;;;;6.03;5.30;;;23.00;64.90;;;;;;4980848;28;20126;-66
2023/05/23 10:35:22;;;;;;;6.72;6.13;;;23.00;64.80;;;;;;4983669;28;20042;-65
2023/05/23 10:37:55;;;;;;;6.28;5.68;;;23.00;64.70;;;;;;5000708;28;20034;-65
2023/05/23 10:40:36;;;;;;;6.20;5.68;;;23.00;64.80;;;;;;4985146;28;20584;-66
2023/05/23 10:43:13;;;;;;;6.38;5.75;;;23.00;64.70;;;;;;4984645;28;20042;-67
2023/05/23 10:45:42;;;;;;;5.65;5.15;;;23.00;64.80;;;;;;4983278;28;20041;-65
2023/05/23 10:48:34;;;;;;;6.68;5.82;;;23.00;64.70;;;;;;4985982;28;20042;-66
2023/05/23 10:51:08;;;;;;;5.82;5.32;;;23.00;64.70;;;;;;4985805;28;20039;-66
2023/05/23 10:53:35;;;;;;;6.53;5.32;;;23.00;64.70;;;;;;4983769;28;20080;-66
2023/05/23 10:56:03;;;;;;;6.47;5.82;;;23.00;64.90;;;;;;4984621;28;20033;-67
2023/05/23 10:58:30;;;;;;;5.47;4.97;;;23.00;64.80;;;;;;4980631;28;20034;-65
2023/05/23 11:00:59;;;;;;;5.65;5.15;;;23.00;64.80;;;;;;4982114;28;20030;-66
2023/05/23 11:03:36;;;;;;;5.10;4.68;;;23.00;64.80;;;;;;4981928;28;20318;-66
2023/05/23 11:06:04;;;;;;;5.22;4.82;;;23.00;64.80;;;;;;4981982;28;20050;-67
2023/05/23 11:08:37;;;;;;;5.70;5.10;;;23.00;64.80;;;;;;4983553;28;20104;-67
2023/05/23 11:11:03;;;;;;;5.65;4.93;;;23.00;64.90;;;;;;4985677;28;20031;-67
2023/05/23 11:13:55;;;;;;;6.28;5.40;;;23.00;64.80;;;;;;4989047;28;20183;-67
2023/05/23 11:16:28;;;;;;;6.00;5.07;;;22.90;64.80;;;;;;4984679;28;20061;-67
2023/05/23 11:19:17;;;;;;;5.15;4.70;;;23.00;64.80;;;;;;4986227;28;20060;-65
2023/05/23 11:21:44;;;;;;;5.97;5.43;;;22.90;64.80;;;;;;4985044;28;20105;-67
2023/05/23 11:24:09;;;;;;;5.40;4.90;;;23.00;64.80;;;;;;4985692;28;20038;-67
2023/05/23 11:26:35;;;;;;;5.10;4.60;;;23.00;64.90;;;;;;4980493;28;20045;-69
2023/05/23 11:29:02;;;;;;;5.95;5.32;;;22.90;64.80;;;;;;4982215;28;20093;-67
2023/05/23 11:31:28;;;;;;;6.13;5.53;;;23.00;64.80;;;;;;4977061;28;20114;-66
2023/05/23 11:33:54;;;;;;;5.80;5.30;;;22.90;64.80;;;;;;4984312;28;20035;-66
2023/05/23 11:36:21;;;;;;;6.88;5.13;;;23.00;64.80;;;;;;4981627;28;20433;-67
2023/05/23 11:38:51;;;;;;;6.40;5.35;;;23.00;64.90;;;;;;4984513;28;20090;-67
2023/05/23 11:41:17;;;;;;;6.65;5.38;;;23.00;64.90;;;;;;4983497;28;20506;-66
2023/05/23 11:43:52;;;;;;;5.97;5.38;;;22.90;64.80;;;;;;4985505;28;20050;-67
2023/05/23 11:46:17;;;;;;;4.72;4.32;;;22.90;64.90;;;;;;4980803;28;20092;-64
2023/05/23 11:48:47;;;;;;;5.63;5.03;;;22.90;64.80;;;;;;4984950;28;20042;-67
2023/05/23 11:51:16;;;;;;;5.65;5.07;;;22.90;64.90;;;;;;4983763;28;20085;-66
2023/05/23 11:53:41;;;;;;;5.30;4.80;;;22.90;64.90;;;;;;4983103;28;20113;-66
2023/05/23 11:56:07;;;;;;;5.72;4.63;;;22.90;64.90;;;;;;4980551;28;20137;-67
2023/05/23 11:58:35;;;;;;;4.80;4.40;;;22.90;64.90;;;;;;4981864;28;20045;-67
2023/05/23 12:01:02;;;;;;;5.07;4.68;;;22.90;64.80;;;;;;4978906;28;20410;-67
2023/05/23 12:03:28;;;;;;;5.28;4.78;;;22.90;64.90;;;;;;4980598;28;20038;-65
2023/05/23 12:05:54;;;;;;;4.78;4.28;;;22.90;65.50;;;;;;4981861;28;20030;-66
2023/05/23 12:08:20;;;;;;;4.75;4.20;;;22.90;64.90;;;;;;4984084;28;20030;-67
2023/05/23 12:10:55;;;;;;;4.88;4.47;;;22.90;64.90;;;;;;4984366;28;20048;-67
2023/05/23 12:13:23;;;;;;;5.45;4.63;;;22.90;64.90;;;;;;4983570;28;20045;-67
2023/05/23 12:15:52;;;;;;;7.03;4.70;;;22.90;64.80;;;;;;4983791;28;20031;-67
2023/05/23 12:18:19;;;;;;;5.35;4.85;;;22.90;65.10;;;;;;4982844;28;20093;-64
2023/05/23 12:20:44;;;;;;;5.03;4.55;;;22.90;65.10;;;;;;4983493;28;20042;-67
2023/05/23 12:23:18;;;;;;;4.72;4.10;;;22.90;65.30;;;;;;4982989;28;20041;-67
2023/05/23 12:25:43;;;;;;;4.30;4.00;;;22.90;65.10;;;;;;4980308;28;20034;-66
2023/05/23 12:28:12;;;;;;;5.40;4.40;;;22.80;65.30;;;;;;4984296;28;20023;-67
2023/05/23 12:30:42;;;;;;;7.07;4.20;;;22.70;65.20;;;;;;4976578;28;20026;-67
2023/05/23 12:33:08;;;;;;;4.85;3.70;;;22.80;64.60;;;;;;4975194;28;20038;-67
2023/05/23 12:35:34;;;;;;;4.18;3.78;;;22.70;65.30;;;;;;4977026;28;20169;-67
2023/05/23 12:37:59;;;;;;;4.63;3.40;;;22.70;65.40;;;;;;4983648;28;20054;-67
2023/05/23 12:40:25;;;;;;;3.70;3.40;;;22.80;64.60;;;;;;4982928;28;20038;-67
2023/05/23 12:42:52;;;;;;;5.90;4.32;;;22.80;64.60;;;;;;4984248;28;20034;-67
2023/05/23 12:45:32;;;;;;;4.15;3.28;;;22.80;64.70;;;;;;4983864;28;20034;-67